createdAt,value
2017-11-09T00:02:07.117Z,19.57
2017-11-09T00:04:40.763Z,18.60
2017-11-09T00:07:08.858Z,18.27
2017-11-09T00:09:36.934Z,19.73
2017-11-09T00:12:05.800Z,23.80
2017-11-09T00:14:33.889Z,19.23
2017-11-09T00:17:02.752Z,18.73
2017-11-09T00:19:30.845Z,17.00
2017-11-09T00:21:58.945Z,19.13
2017-11-09T00:24:27.028Z,21.83
2017-11-09T00:26:55.124Z,19.53
2017-11-09T00:29:24.003Z,19.97
2017-11-09T00:31:52.097Z,20.17
2017-11-09T00:34:20.197Z,29.60
2017-11-09T00:36:49.115Z,25.97
2017-11-09T00:39:17.212Z,26.67
2017-11-09T00:41:45.310Z,22.30
2017-11-09T00:44:13.408Z,22.07
2017-11-09T00:46:42.261Z,21.30
2017-11-09T00:49:10.344Z,22.87
2017-11-09T00:51:38.428Z,22.17
2017-11-09T00:54:07.301Z,20.50
2017-11-09T00:56:35.378Z,22.70
2017-11-09T00:59:03.466Z,20.20
2017-11-09T01:01:32.320Z,22.73
2017-11-09T01:04:00.420Z,26.00
2017-11-09T01:06:29.491Z,22.63
2017-11-09T01:08:57.569Z,21.80
2017-11-09T01:11:25.666Z,22.10
2017-11-09T01:13:53.752Z,22.97
2017-11-09T01:16:21.844Z,22.80
2017-11-09T01:18:49.941Z,24.40
2017-11-09T01:21:18.024Z,25.80
2017-11-09T01:23:46.881Z,22.70
2017-11-09T01:26:14.968Z,27.77
2017-11-09T01:28:43.059Z,25.13
2017-11-09T01:31:12.013Z,25.20
2017-11-09T01:33:40.101Z,24.73
2017-11-09T01:36:08.199Z,21.23
2017-11-09T01:38:37.057Z,26.17
2017-11-09T01:41:05.153Z,21.23
2017-11-09T01:43:34.005Z,23.50
2017-11-09T01:46:02.087Z,21.50
2017-11-09T01:48:30.180Z,27.00
2017-11-09T01:50:59.033Z,27.13
2017-11-09T01:53:27.135Z,21.07
2017-11-09T01:55:55.997Z,18.60
2017-11-09T01:58:24.088Z,20.40
2017-11-09T02:00:52.171Z,20.50
2017-11-09T02:03:21.013Z,19.87
2017-11-09T02:05:49.113Z,19.70
2017-11-09T02:08:17.424Z,24.73
2017-11-09T02:10:45.497Z,18.17
2017-11-09T02:13:13.578Z,18.60
2017-11-09T02:15:41.665Z,19.03
2017-11-09T02:18:10.094Z,22.90
2017-11-09T02:20:38.956Z,19.53
2017-11-09T02:23:07.031Z,19.50
2017-11-09T02:25:35.126Z,20.50
2017-11-09T02:28:03.992Z,21.50
2017-11-09T02:30:32.081Z,18.63
2017-11-09T02:33:00.917Z,17.13
2017-11-09T02:35:29.007Z,18.73
2017-11-09T02:37:57.073Z,17.20
2017-11-09T02:40:25.172Z,17.20
2017-11-09T02:42:54.039Z,16.33
2017-11-09T02:45:22.141Z,22.97
2017-11-09T02:47:51.003Z,16.70
2017-11-09T02:50:19.121Z,19.57
2017-11-09T02:52:47.191Z,18.00
2017-11-09T02:55:15.286Z,18.60
2017-11-09T02:57:43.387Z,17.03
2017-11-09T03:00:11.469Z,16.83
2017-11-09T03:02:40.340Z,18.43
2017-11-09T03:05:08.428Z,15.00
2017-11-09T03:07:37.279Z,13.80
2017-11-09T03:10:05.379Z,12.00
2017-11-09T03:12:33.643Z,14.57
2017-11-09T03:15:01.736Z,17.50
2017-11-09T03:17:30.594Z,15.43
2017-11-09T03:19:58.679Z,14.70
2017-11-09T03:22:26.757Z,14.20
2017-11-09T03:24:54.843Z,15.90
2017-11-09T03:27:23.687Z,14.30
2017-11-09T03:29:51.788Z,15.00
2017-11-09T03:32:19.863Z,16.63
2017-11-09T03:34:48.715Z,13.03
2017-11-09T03:37:16.910Z,12.87
2017-11-09T03:39:44.987Z,15.50
2017-11-09T03:42:13.065Z,18.17
2017-11-09T03:44:41.916Z,17.60
2017-11-09T03:47:10.209Z,17.20
2017-11-09T03:49:38.308Z,14.70
2017-11-09T03:52:07.148Z,17.17
2017-11-09T03:54:35.380Z,14.33
2017-11-09T03:57:04.224Z,13.03
2017-11-09T03:59:32.336Z,16.70
2017-11-09T04:02:00.419Z,14.50
2017-11-09T04:04:28.516Z,14.50
2017-11-09T04:06:56.612Z,14.13
2017-11-09T04:09:24.731Z,14.67
2017-11-09T04:11:52.828Z,14.20
2017-11-09T04:14:20.926Z,13.10
2017-11-09T04:16:49.058Z,18.87
2017-11-09T04:19:17.152Z,13.87
2017-11-09T04:21:45.233Z,13.07
2017-11-09T04:24:13.309Z,13.10
2017-11-09T04:26:41.623Z,14.73
2017-11-09T04:29:09.715Z,12.00
2017-11-09T04:31:37.825Z,11.10
2017-11-09T04:34:05.901Z,12.50
2017-11-09T04:36:33.968Z,11.60
2017-11-09T04:39:02.067Z,12.30
2017-11-09T04:41:30.899Z,13.20
2017-11-09T04:43:59.029Z,13.40
2017-11-09T04:46:27.936Z,11.10
2017-11-09T04:48:56.035Z,11.87
2017-11-09T04:51:24.110Z,12.30
2017-11-09T04:53:52.200Z,10.87
2017-11-09T04:56:20.271Z,13.33
2017-11-09T04:58:48.396Z,11.93
2017-11-09T05:01:16.490Z,11.90
2017-11-09T05:03:44.581Z,12.80
2017-11-09T05:06:12.682Z,12.20
2017-11-09T05:08:41.527Z,14.17
2017-11-09T05:11:09.625Z,11.30
2017-11-09T05:13:38.476Z,13.07
2017-11-09T05:16:06.645Z,11.70
2017-11-09T05:18:34.724Z,14.10
2017-11-09T05:21:02.816Z,11.50
2017-11-09T05:23:30.888Z,10.27
2017-11-09T05:25:58.990Z,11.43
2017-11-09T05:28:27.077Z,11.17
2017-11-09T05:30:55.165Z,13.33
2017-11-09T05:33:23.247Z,12.03
2017-11-09T05:35:51.337Z,10.60
2017-11-09T05:38:19.416Z,14.23
2017-11-09T05:40:48.391Z,11.70
2017-11-09T05:43:16.800Z,16.03
2017-11-09T05:45:45.710Z,11.77
2017-11-09T05:48:13.808Z,13.20
2017-11-09T05:50:41.881Z,12.63
2017-11-09T05:53:09.985Z,14.13
2017-11-09T05:55:38.052Z,12.60
2017-11-09T05:58:06.144Z,18.20
2017-11-09T06:00:34.983Z,14.90
2017-11-09T06:03:03.307Z,15.30
2017-11-09T06:05:31.389Z,15.53
2017-11-09T06:07:59.484Z,14.50
2017-11-09T06:10:27.552Z,17.03
2017-11-09T06:12:55.632Z,15.30
2017-11-09T06:15:23.836Z,14.53
2017-11-09T06:17:51.988Z,15.37
2017-11-09T06:20:20.104Z,14.77
2017-11-09T06:22:48.168Z,15.60
2017-11-09T06:25:17.039Z,16.67
2017-11-09T06:27:45.129Z,15.60
2017-11-09T06:30:13.971Z,13.73
2017-11-09T06:32:42.059Z,15.67
2017-11-09T06:35:10.140Z,15.23
2017-11-09T06:37:39.166Z,15.50
2017-11-09T06:40:07.275Z,15.67
2017-11-09T06:42:35.357Z,15.37
2017-11-09T06:45:03.442Z,16.67
2017-11-09T06:47:31.532Z,17.00
2017-11-09T06:50:00.393Z,18.30
2017-11-09T06:52:28.494Z,18.80
2017-11-09T06:54:57.349Z,18.40
2017-11-09T06:57:25.436Z,15.57
2017-11-09T06:59:54.286Z,16.97
2017-11-09T07:02:22.376Z,16.57
2017-11-09T07:04:50.452Z,17.40
2017-11-09T07:07:18.567Z,16.27
2017-11-09T07:09:46.652Z,16.57
2017-11-09T07:12:14.752Z,18.07
2017-11-09T07:14:42.844Z,17.80
2017-11-09T07:17:10.960Z,16.40
2017-11-09T07:19:39.039Z,17.43
2017-11-09T07:22:07.124Z,18.50
2017-11-09T07:24:35.232Z,18.43
2017-11-09T07:27:03.295Z,19.87
2017-11-09T07:29:31.401Z,18.83
2017-11-09T07:31:59.822Z,15.20
2017-11-09T07:34:27.917Z,17.77
2017-11-09T07:36:56.032Z,21.37
2017-11-09T07:39:24.868Z,17.63
2017-11-09T07:41:52.949Z,17.60
2017-11-09T07:44:21.809Z,15.70
2017-11-09T07:46:49.890Z,18.10
2017-11-09T07:49:18.007Z,16.37
2017-11-09T07:51:46.106Z,16.17
2017-11-09T07:54:14.193Z,17.60
2017-11-09T07:56:42.373Z,19.13
2017-11-09T07:59:10.552Z,18.63
2017-11-09T08:01:38.650Z,19.90
2017-11-09T08:04:07.501Z,19.47
2017-11-09T08:06:35.582Z,19.13
2017-11-09T08:09:03.865Z,18.00
2017-11-09T08:11:31.963Z,19.57
2017-11-09T08:14:00.041Z,18.43
2017-11-09T08:16:28.133Z,18.37
2017-11-09T08:18:56.225Z,20.20
2017-11-09T08:21:24.308Z,18.90
2017-11-09T08:23:52.382Z,18.20
2017-11-09T08:26:23.562Z,18.93
2017-11-09T08:28:53.211Z,22.83
2017-11-09T08:31:21.576Z,23.20
2017-11-09T08:33:49.765Z,22.57
2017-11-09T08:36:17.865Z,19.00
2017-11-09T08:38:46.712Z,20.70
2017-11-09T08:41:14.833Z,24.10
2017-11-09T08:43:43.687Z,23.30
2017-11-09T08:46:11.773Z,20.83
2017-11-09T08:48:39.860Z,24.50
2017-11-09T08:51:08.720Z,24.50
2017-11-09T08:53:36.819Z,25.60
2017-11-09T08:56:05.663Z,22.97
2017-11-09T08:58:33.761Z,22.43
2017-11-09T09:01:02.749Z,23.93
2017-11-09T09:03:30.916Z,23.93
2017-11-09T09:05:59.012Z,20.47
2017-11-09T09:08:27.892Z,19.20
2017-11-09T09:10:56.758Z,20.30
2017-11-09T09:13:24.848Z,18.57
2017-11-09T09:15:53.724Z,18.70
2017-11-09T09:18:21.989Z,21.80
2017-11-09T09:20:51.989Z,19.33
2017-11-09T09:23:20.064Z,19.20
2017-11-09T09:25:49.064Z,22.53
2017-11-09T09:28:22.828Z,21.13
2017-11-09T09:30:51.131Z,17.97
2017-11-09T09:33:22.264Z,21.53
2017-11-09T09:35:54.501Z,18.83
2017-11-09T09:38:40.444Z,17.90
2017-11-09T09:41:08.928Z,20.33
2017-11-09T09:43:37.031Z,22.20
2017-11-09T09:46:05.889Z,18.20
2017-11-09T09:48:33.984Z,18.17
2017-11-09T09:51:02.080Z,18.10
2017-11-09T09:53:30.161Z,20.87
2017-11-09T09:55:58.248Z,20.10
2017-11-09T09:58:26.347Z,18.20
2017-11-09T10:00:54.556Z,18.77
2017-11-09T10:03:22.644Z,17.93
2017-11-09T10:05:50.709Z,21.00
2017-11-09T10:08:18.804Z,17.93
2017-11-09T10:10:46.887Z,19.50
2017-11-09T10:13:14.994Z,18.77
2017-11-09T10:15:43.849Z,21.70
2017-11-09T10:18:11.945Z,21.23
2017-11-09T10:20:43.807Z,21.43
2017-11-09T10:23:11.882Z,23.20
2017-11-09T10:25:40.740Z,19.07
2017-11-09T10:28:10.656Z,17.90
2017-11-09T10:30:38.762Z,18.53
2017-11-09T10:33:09.756Z,18.40
2017-11-09T10:35:37.850Z,20.80
2017-11-09T10:38:05.930Z,19.50
2017-11-09T10:40:34.802Z,19.37
2017-11-09T10:43:02.888Z,21.50
2017-11-09T10:45:31.728Z,18.77
2017-11-09T10:47:59.833Z,19.53
2017-11-09T10:50:27.921Z,19.73
2017-11-09T10:52:56.767Z,21.67
2017-11-09T10:55:24.868Z,18.60
2017-11-09T10:57:52.953Z,19.40
2017-11-09T11:13:44.416Z,24.03
2017-11-09T11:16:12.492Z,21.80
2017-11-09T11:18:40.577Z,18.40
2017-11-09T11:21:08.684Z,21.97
2017-11-09T11:23:36.779Z,24.90
2017-11-09T11:26:04.877Z,23.17
2017-11-09T11:28:32.970Z,18.53
2017-11-09T11:31:01.820Z,24.53
2017-11-09T11:33:29.930Z,24.00
2017-11-09T11:35:58.781Z,19.50
2017-11-09T11:38:26.877Z,19.57
2017-11-09T11:40:55.139Z,20.87
2017-11-09T11:43:23.413Z,24.13
2017-11-09T11:45:51.513Z,24.87
2017-11-09T11:48:19.608Z,23.20
2017-11-09T11:50:47.833Z,19.50
2017-11-09T11:53:15.915Z,22.70
2017-11-09T11:55:44.776Z,20.73
2017-11-09T11:58:12.860Z,19.27
2017-11-09T12:00:40.966Z,20.20
2017-11-09T12:03:11.584Z,18.80
2017-11-09T12:05:40.442Z,18.57
2017-11-09T12:08:08.528Z,17.07
2017-11-09T12:10:36.701Z,19.30
2017-11-09T12:13:05.589Z,19.40
2017-11-09T12:15:33.681Z,21.70
2017-11-09T12:18:02.533Z,20.87
2017-11-09T12:20:30.651Z,19.80
2017-11-09T12:22:58.738Z,22.27
2017-11-09T12:25:26.824Z,20.57
2017-11-09T12:27:55.021Z,23.00
2017-11-09T12:30:23.124Z,23.17
2017-11-09T12:32:51.229Z,22.20
2017-11-09T12:35:19.320Z,22.83
2017-11-09T12:37:47.413Z,28.07
2017-11-09T12:40:15.499Z,23.87
2017-11-09T12:42:44.377Z,21.77
2017-11-09T12:45:12.475Z,22.50
2017-11-09T12:47:40.565Z,21.57
2017-11-09T12:50:08.649Z,29.00
2017-11-09T12:52:36.741Z,22.87
2017-11-09T12:55:04.827Z,21.70
2017-11-09T12:57:33.681Z,21.90
2017-11-09T13:00:01.805Z,23.47
2017-11-09T13:02:30.648Z,21.47
2017-11-09T13:04:58.941Z,22.43
2017-11-09T13:07:27.220Z,24.40
2017-11-09T13:09:55.379Z,23.30
2017-11-09T13:12:23.468Z,24.07
2017-11-09T13:14:51.557Z,24.10
2017-11-09T13:17:19.652Z,23.60
2017-11-09T13:19:47.962Z,23.30
2017-11-09T13:22:16.053Z,22.07
2017-11-09T13:24:44.597Z,23.47
2017-11-09T13:27:12.656Z,21.40
2017-11-09T13:29:40.775Z,23.90
2017-11-09T13:32:08.866Z,24.53
2017-11-09T13:34:37.709Z,22.80
2017-11-09T13:37:05.814Z,22.33
2017-11-09T13:39:34.677Z,19.27
2017-11-09T13:42:02.768Z,21.20
2017-11-09T13:44:30.841Z,20.57
2017-11-09T13:46:59.698Z,22.63
2017-11-09T13:49:27.773Z,18.43
2017-11-09T13:51:55.879Z,19.27
2017-11-09T13:54:24.723Z,18.80
2017-11-09T13:56:52.828Z,18.67
2017-11-09T13:59:21.675Z,18.57
2017-11-09T14:01:51.088Z,19.00
2017-11-09T14:04:19.245Z,21.37
2017-11-09T14:06:47.521Z,21.43
2017-11-09T14:09:15.588Z,18.40
2017-11-09T14:11:43.684Z,18.30
2017-11-09T14:14:11.793Z,20.33
2017-11-09T14:16:39.884Z,18.50
2017-11-09T14:19:07.992Z,18.20
2017-11-09T14:21:36.077Z,18.03
2017-11-09T14:24:04.165Z,16.50
2017-11-09T14:26:33.021Z,16.03
2017-11-09T14:29:01.109Z,13.50
2017-11-09T14:31:29.192Z,13.67
2017-11-09T14:33:57.332Z,13.13
2017-11-09T14:36:25.412Z,12.77
2017-11-09T14:38:53.499Z,12.93
2017-11-09T14:41:21.869Z,13.30
2017-11-09T14:43:49.952Z,11.43
2017-11-09T14:46:18.035Z,12.47
2017-11-09T14:48:46.880Z,14.83
2017-11-09T14:51:14.959Z,13.83
2017-11-09T14:53:43.037Z,13.10
2017-11-09T14:56:11.128Z,13.30
2017-11-09T14:58:39.981Z,12.10
2017-11-09T15:01:08.068Z,10.03
2017-11-09T15:03:36.158Z,10.73
2017-11-09T15:06:05.014Z,12.43
2017-11-09T15:08:33.120Z,12.33
2017-11-09T15:11:01.969Z,10.10
2017-11-09T15:13:30.052Z,9.93
2017-11-09T15:15:58.128Z,10.67
2017-11-09T15:18:26.219Z,10.90
2017-11-09T15:20:55.066Z,10.73
2017-11-09T15:23:23.156Z,9.10
2017-11-09T15:25:51.237Z,10.80
2017-11-09T15:28:19.330Z,11.00
2017-11-09T15:30:48.178Z,9.20
2017-11-09T15:33:16.261Z,11.20
2017-11-09T15:35:50.061Z,11.33
2017-11-09T15:38:18.162Z,10.80
2017-11-09T15:40:46.230Z,9.97
2017-11-09T15:43:14.386Z,10.80
2017-11-09T15:45:42.477Z,10.70
2017-11-09T15:48:10.545Z,9.23
2017-11-09T15:50:39.392Z,9.93
2017-11-09T15:53:07.480Z,10.87
2017-11-09T15:55:35.559Z,10.37
2017-11-09T15:58:03.650Z,9.50
2017-11-09T16:00:32.495Z,10.80
2017-11-09T16:03:00.575Z,10.40
2017-11-09T16:05:28.646Z,10.80
2017-11-09T16:07:56.846Z,11.93
2017-11-09T16:10:24.920Z,10.97
2017-11-09T16:12:53.781Z,11.70
2017-11-09T16:15:21.847Z,12.17
2017-11-09T16:17:49.948Z,11.80
2017-11-09T16:20:21.335Z,10.80
2017-11-09T16:22:49.453Z,10.50
2017-11-09T16:25:17.536Z,10.93
2017-11-09T16:27:46.401Z,12.13
2017-11-09T16:30:14.500Z,12.83
2017-11-09T16:32:42.576Z,12.83
2017-11-09T16:35:10.672Z,13.30
2017-11-09T16:37:38.763Z,13.10
2017-11-09T16:40:07.622Z,11.70
2017-11-09T16:42:36.505Z,13.00
2017-11-09T16:45:04.577Z,13.90
2017-11-09T16:47:32.665Z,13.70
2017-11-09T16:50:00.755Z,11.17
2017-11-09T16:52:29.617Z,14.40
2017-11-09T16:54:57.813Z,12.90
2017-11-09T16:57:26.663Z,13.30
2017-11-09T16:59:54.753Z,12.50
2017-11-09T17:02:22.848Z,12.00
2017-11-09T17:04:51.698Z,12.90
2017-11-09T17:07:24.573Z,12.83
2017-11-09T17:09:52.654Z,14.23
2017-11-09T17:12:20.750Z,11.87
2017-11-09T17:14:49.596Z,13.43
2017-11-09T17:17:17.701Z,13.33
2017-11-09T17:19:45.784Z,13.33
2017-11-09T17:22:14.653Z,13.73
2017-11-09T17:24:42.732Z,13.60
2017-11-09T17:27:11.669Z,12.87
2017-11-09T17:29:39.760Z,14.80
2017-11-09T17:32:07.856Z,13.83
2017-11-09T17:34:35.935Z,15.23
2017-11-09T17:37:04.789Z,19.43
2017-11-09T17:39:32.871Z,17.33
2017-11-09T17:42:06.861Z,15.80
2017-11-09T17:44:35.002Z,16.30
2017-11-09T17:47:03.079Z,19.07
2017-11-09T17:49:31.305Z,17.27
2017-11-09T17:51:59.661Z,16.03
2017-11-09T17:54:27.735Z,17.47
2017-11-09T17:56:55.815Z,16.97
2017-11-09T17:59:30.400Z,17.87
2017-11-09T18:01:58.482Z,16.00
2017-11-09T18:07:23.831Z,17.93
2017-11-09T18:09:51.928Z,16.90
2017-11-09T18:12:21.143Z,19.87
2017-11-09T18:14:49.237Z,17.60
2017-11-09T18:17:17.338Z,19.00
2017-11-09T18:19:45.423Z,19.37
2017-11-09T18:22:13.519Z,20.40
2017-11-09T18:24:42.385Z,18.33
2017-11-09T18:27:10.476Z,19.67
2017-11-09T18:29:39.328Z,19.00
2017-11-09T18:32:07.421Z,19.23
2017-11-09T18:34:36.270Z,24.17
2017-11-09T18:37:04.357Z,16.80
2017-11-09T18:39:32.461Z,18.13
2017-11-09T18:42:01.323Z,19.50
2017-11-09T18:44:29.478Z,21.83
2017-11-09T18:46:57.540Z,21.13
2017-11-09T18:49:25.636Z,20.37
2017-11-09T18:51:53.731Z,18.70
2017-11-09T18:54:22.592Z,16.93
2017-11-09T18:56:50.681Z,17.77
2017-11-09T18:59:19.557Z,19.67
2017-11-09T19:01:47.640Z,18.60
2017-11-09T19:04:16.499Z,18.03
2017-11-09T19:06:44.895Z,19.07
2017-11-09T19:09:12.978Z,18.37
2017-11-09T19:11:41.860Z,18.90
2017-11-09T19:14:10.721Z,18.20
2017-11-09T19:16:38.804Z,18.87
2017-11-09T19:19:06.897Z,16.97
2017-11-09T19:21:35.757Z,17.03
2017-11-09T19:24:03.851Z,18.27
2017-11-09T19:26:32.903Z,18.70
2017-11-09T19:29:00.998Z,19.17
2017-11-09T19:31:29.066Z,20.03
2017-11-09T19:33:57.164Z,19.30
2017-11-09T19:39:26.421Z,20.33
2017-11-09T19:41:54.504Z,19.50
2017-11-09T19:44:22.625Z,18.90
2017-11-09T19:46:51.472Z,18.20
2017-11-09T19:49:19.568Z,19.50
2017-11-09T19:51:48.466Z,20.70
2017-11-09T19:54:17.311Z,17.33
2017-11-09T19:56:45.407Z,18.53
2017-11-09T19:59:13.504Z,19.90
2017-11-09T20:01:42.379Z,16.53
2017-11-09T20:04:11.229Z,17.00
2017-11-09T20:06:39.321Z,19.33
2017-11-09T20:09:07.405Z,18.33
2017-11-09T20:11:35.484Z,18.90
2017-11-09T20:14:04.336Z,18.20
2017-11-09T20:16:32.444Z,18.67
2017-11-09T20:19:01.288Z,16.00
2017-11-09T20:21:29.397Z,16.90
2017-11-09T20:23:58.247Z,17.13
2017-11-09T20:26:26.352Z,16.77
2017-11-09T20:28:54.443Z,18.90
2017-11-09T20:31:23.284Z,15.80
2017-11-09T20:33:51.461Z,16.37
2017-11-09T20:36:19.545Z,15.93
2017-11-09T20:38:47.635Z,16.20
2017-11-09T20:41:16.476Z,17.90
2017-11-09T20:43:44.569Z,16.33
2017-11-09T20:46:12.647Z,14.47
2017-11-09T20:48:41.068Z,15.70
2017-11-09T20:51:09.163Z,15.77
2017-11-09T20:53:37.259Z,15.10
2017-11-09T20:56:05.333Z,21.33
2017-11-09T20:58:36.377Z,17.03
2017-11-09T21:01:04.456Z,17.37
2017-11-09T21:03:33.309Z,14.83
2017-11-09T21:06:01.408Z,15.33
2017-11-09T21:08:30.264Z,15.90
2017-11-09T21:10:58.352Z,15.10
2017-11-09T21:13:26.632Z,14.40
2017-11-09T21:15:54.729Z,17.17
2017-11-09T21:18:22.985Z,18.30
2017-11-09T21:20:51.072Z,14.77
2017-11-09T21:23:19.924Z,14.73
2017-11-09T21:25:48.026Z,15.23
2017-11-09T21:28:16.100Z,14.13
2017-11-09T21:30:44.998Z,14.10
2017-11-09T21:33:13.832Z,14.20
2017-11-09T21:35:41.920Z,14.00
2017-11-09T21:38:10.005Z,14.40
2017-11-09T21:40:38.097Z,13.90
2017-11-09T21:43:06.179Z,14.27
2017-11-09T21:45:34.268Z,14.40
2017-11-09T21:48:02.443Z,15.20
2017-11-09T21:50:30.531Z,14.70
2017-11-09T21:52:58.627Z,13.63
2017-11-09T21:55:26.714Z,15.00
2017-11-09T21:57:55.581Z,16.00
2017-11-09T22:00:23.671Z,15.33
2017-11-09T22:02:52.526Z,14.57
2017-11-09T22:05:20.619Z,14.50
2017-11-09T22:07:48.687Z,13.30
2017-11-09T22:10:17.553Z,14.20
2017-11-09T22:12:45.634Z,13.20
2017-11-09T22:15:13.730Z,12.33
2017-11-09T22:17:41.816Z,15.37
2017-11-09T22:20:09.930Z,15.20
2017-11-09T22:22:38.125Z,13.60
2017-11-09T22:25:06.229Z,15.57
2017-11-09T22:27:34.309Z,13.77
2017-11-09T22:30:02.533Z,15.20
2017-11-09T22:32:30.633Z,14.17
2017-11-09T22:34:58.739Z,15.70
2017-11-09T22:37:26.957Z,15.57
2017-11-09T22:39:55.075Z,17.30
2017-11-09T22:42:23.170Z,17.10
2017-11-09T22:44:51.265Z,15.47
2017-11-09T22:47:19.341Z,16.67
2017-11-09T22:49:47.427Z,16.53
2017-11-09T22:52:16.268Z,15.47
2017-11-09T22:54:44.361Z,15.70
2017-11-09T22:57:12.456Z,14.70
2017-11-09T22:59:41.336Z,13.10
2017-11-09T23:02:10.194Z,14.27
2017-11-09T23:04:38.280Z,12.70
2017-11-09T23:07:06.529Z,14.03
2017-11-09T23:09:34.635Z,12.03
2017-11-09T23:12:02.716Z,13.30
2017-11-09T23:14:31.571Z,13.63
2017-11-09T23:16:59.679Z,14.30
2017-11-09T23:19:28.528Z,14.83
2017-11-09T23:21:56.618Z,14.60
2017-11-09T23:24:24.808Z,15.47
2017-11-09T23:26:52.912Z,14.53
2017-11-09T23:29:21.159Z,16.30
2017-11-09T23:31:49.291Z,15.83
2017-11-09T23:34:17.375Z,14.70
2017-11-09T23:36:45.547Z,18.90
2017-11-09T23:39:13.658Z,17.00
2017-11-09T23:41:41.762Z,15.37
2017-11-09T23:44:09.837Z,15.20
2017-11-09T23:46:37.924Z,14.30
2017-11-09T23:49:06.013Z,14.90
2017-11-09T23:51:34.879Z,13.23
2017-11-09T23:54:02.969Z,14.70
2017-11-09T23:56:31.053Z,14.57
2017-11-09T23:59:00.040Z,15.17
